KILE/ILE METAR and TAF weather

Enter ICAO airport designator
Station Type Date Time Source
KILE METAR 2021/10/22 19:56 UTC NOAA

KILE 221956Z AUTO 14007KT 090V170 10SM CLR 29/19 A3001 RMK AO2 SLP150 T02940189


Station Type Date Time Source
KILE Decoded METAR 2021/10/22 19:56 UTC NOAA

Killeen, Skylark Field Airport, TX, United States (KILE) 31-05N 097-41W
Oct 22, 2021 - 03:56 PM EDT / 2021.10.22 1956 UTC
Wind: from the SE (140 degrees) at 8 MPH (7 KT) (direction variable):0
Visibility: 10 mile(s):0
Sky conditions: clear
Temperature: 84.9 F (29.4 C)
Dew Point: 66.0 F (18.9 C)
Relative Humidity: 53%
Pressure (altimeter): 30.01 in. Hg (1016 hPa)
ob: KILE 221956Z AUTO 14007KT 090V170 10SM CLR 29/19 A3001 RMK AO2 SLP150 T02940189
cycle: 20

Station Type Date Time Source
KILE TAF UTC NOAA

Error!

Example: see airport list